createdAt,value
2019-03-10T00:02:17.062Z,82.56
2019-03-10T00:04:48.560Z,82.51
2019-03-10T00:07:20.292Z,82.32
2019-03-10T00:09:51.938Z,82.47
2019-03-10T00:12:23.680Z,82.34
2019-03-10T00:14:57.330Z,82.75
2019-03-10T00:17:29.243Z,82.89
2019-03-10T00:20:01.191Z,82.57
2019-03-10T00:22:33.079Z,82.26
2019-03-10T00:25:05.021Z,82.13
2019-03-10T00:27:36.943Z,81.88
2019-03-10T00:30:09.160Z,81.46
2019-03-10T00:32:41.073Z,81.40
2019-03-10T00:35:12.756Z,81.63
2019-03-10T00:37:44.645Z,81.57
2019-03-10T00:41:11.751Z,81.71
2019-03-10T00:44:56.990Z,83.20
2019-03-10T00:48:27.271Z,84.35
2019-03-10T00:52:03.920Z,84.54
2019-03-10T00:54:35.582Z,84.48
2019-03-10T00:57:07.646Z,84.29
2019-03-10T00:59:39.305Z,84.78
2019-03-10T01:02:10.959Z,85.72
2019-03-10T01:04:42.732Z,85.69
2019-03-10T01:07:14.415Z,86.12
2019-03-10T01:09:46.187Z,86.95
2019-03-10T01:12:17.981Z,87.21
2019-03-10T01:14:49.769Z,86.75
2019-03-10T01:17:21.966Z,87.30
2019-03-10T01:19:53.979Z,87.51
2019-03-10T01:22:26.535Z,87.35
2019-03-10T01:24:58.229Z,86.94
2019-03-10T01:27:29.858Z,86.60
2019-03-10T01:30:01.588Z,86.19
2019-03-10T01:33:41.684Z,86.02
2019-03-10T01:36:16.562Z,85.84
2019-03-10T01:38:49.449Z,85.92
2019-03-10T01:41:21.176Z,85.95
2019-03-10T01:43:53.226Z,86.12
2019-03-10T01:46:25.041Z,86.22
2019-03-10T01:48:56.662Z,86.35
2019-03-10T01:51:28.257Z,86.28
2019-03-10T01:53:59.864Z,86.06
2019-03-10T01:56:31.762Z,85.76
2019-03-10T01:59:03.432Z,85.96
2019-03-10T02:01:35.502Z,86.05
2019-03-10T02:04:07.365Z,86.84
2019-03-10T02:06:39.066Z,86.67
2019-03-10T02:09:11.013Z,87.50
2019-03-10T02:11:43.056Z,86.74
2019-03-10T02:14:14.989Z,87.39
2019-03-10T02:16:46.683Z,89.03
2019-03-10T02:19:18.191Z,88.58
2019-03-10T02:21:49.753Z,88.43
2019-03-10T02:24:24.008Z,88.04
2019-03-10T02:26:54.849Z,86.86
2019-03-10T02:29:26.734Z,87.07
2019-03-10T02:31:58.484Z,86.94
2019-03-10T02:34:29.977Z,86.73
2019-03-10T02:37:02.541Z,86.75
2019-03-10T02:39:34.216Z,86.55
2019-03-10T02:42:05.706Z,86.41
2019-03-10T02:44:40.226Z,87.76
2019-03-10T02:47:11.934Z,87.46
2019-03-10T02:49:43.751Z,86.89
2019-03-10T02:52:15.375Z,87.06
2019-03-10T02:54:47.162Z,87.17
2019-03-10T02:57:19.090Z,87.17
2019-03-10T02:59:50.763Z,87.16
2019-03-10T03:02:22.693Z,87.06
2019-03-10T03:04:54.602Z,87.13
2019-03-10T03:07:26.741Z,87.01
2019-03-10T03:09:58.275Z,86.70
2019-03-10T03:12:29.929Z,86.30
2019-03-10T03:15:01.618Z,86.23
2019-03-10T03:17:33.604Z,86.08
2019-03-10T03:20:05.628Z,86.08
2019-03-10T03:22:37.187Z,86.27
2019-03-10T03:25:09.724Z,91.71
2019-03-10T03:27:41.439Z,91.99
2019-03-10T03:30:14.886Z,89.97
2019-03-10T03:32:47.009Z,88.63
2019-03-10T03:35:56.584Z,88.16
2019-03-10T03:38:57.171Z,89.29
2019-03-10T03:41:30.953Z,89.52
2019-03-10T03:44:02.683Z,89.75
2019-03-10T03:46:34.501Z,90.68
2019-03-10T03:49:06.252Z,90.48
2019-03-10T03:51:37.826Z,90.56
2019-03-10T03:54:10.287Z,90.29
2019-03-10T03:56:42.046Z,89.83
2019-03-10T03:59:13.897Z,89.39
2019-03-10T04:01:55.595Z,89.30
2019-03-10T04:04:27.354Z,88.79
2019-03-10T04:06:58.984Z,88.33
2019-03-10T04:09:30.680Z,88.01
2019-03-10T04:12:02.398Z,87.70
2019-03-10T04:14:37.870Z,87.67
2019-03-10T04:17:09.525Z,87.47
2019-03-10T04:19:41.152Z,87.56
2019-03-10T04:22:12.857Z,87.57
2019-03-10T04:24:48.008Z,87.43
2019-03-10T04:27:19.655Z,88.77
2019-03-10T04:29:51.286Z,94.04
2019-03-10T04:32:22.715Z,92.50
2019-03-10T04:34:54.420Z,91.53
2019-03-10T04:37:26.056Z,91.19
2019-03-10T04:39:57.612Z,90.67
2019-03-10T04:42:29.322Z,90.40
2019-03-10T04:45:00.818Z,90.25
2019-03-10T04:47:32.473Z,90.30
2019-03-10T04:50:04.726Z,90.80
2019-03-10T04:52:36.545Z,92.37
2019-03-10T04:55:30.614Z,93.10
2019-03-10T04:58:04.827Z,94.52
2019-03-10T05:00:38.211Z,95.42
2019-03-10T05:03:09.960Z,96.73
2019-03-10T05:05:41.531Z,97.75
2019-03-10T05:08:13.314Z,98.84
2019-03-10T05:10:44.883Z,99.59
2019-03-10T05:13:16.356Z,100.00
2019-03-10T05:15:48.148Z,100.00
2019-03-10T05:18:19.837Z,100.00
2019-03-10T05:20:51.559Z,100.00
2019-03-10T05:23:50.720Z,100.00
2019-03-10T05:26:22.597Z,100.00
2019-03-10T05:28:54.157Z,100.00
2019-03-10T05:31:25.748Z,100.00
2019-03-10T05:33:57.536Z,100.00
2019-03-10T05:36:29.303Z,100.00
2019-03-10T05:39:01.069Z,100.00
2019-03-10T05:41:32.573Z,100.00
2019-03-10T05:44:04.329Z,100.00
2019-03-10T05:46:36.549Z,100.00
2019-03-10T05:49:08.390Z,100.00
2019-03-10T05:51:40.074Z,100.00
2019-03-10T05:54:11.929Z,100.00
2019-03-10T05:56:44.282Z,100.00
2019-03-10T05:59:16.426Z,100.00
2019-03-10T06:01:48.468Z,100.00
2019-03-10T06:04:20.262Z,100.00
2019-03-10T06:06:51.799Z,100.00
2019-03-10T06:09:23.515Z,100.00
2019-03-10T06:11:55.449Z,100.00
2019-03-10T06:14:27.102Z,100.00
2019-03-10T06:16:59.463Z,100.00
2019-03-10T06:19:31.492Z,100.00
2019-03-10T06:22:04.280Z,100.00
2019-03-10T06:24:36.192Z,100.00
2019-03-10T06:27:08.825Z,100.00
2019-03-10T06:29:40.396Z,100.00
2019-03-10T06:32:12.099Z,100.00
2019-03-10T06:34:43.847Z,100.00
2019-03-10T06:37:16.236Z,100.00
2019-03-10T06:39:48.066Z,100.00
2019-03-10T06:42:19.702Z,100.00
2019-03-10T06:44:51.770Z,100.00
2019-03-10T06:47:24.116Z,100.00
2019-03-10T06:49:55.734Z,100.00
2019-03-10T06:52:27.385Z,100.00
2019-03-10T06:54:59.943Z,100.00
2019-03-10T06:57:33.837Z,100.00
2019-03-10T07:00:06.321Z,100.00
2019-03-10T07:02:38.009Z,100.00
2019-03-10T07:05:11.689Z,100.00
2019-03-10T07:07:43.733Z,100.00
2019-03-10T07:10:16.050Z,100.00
2019-03-10T07:12:47.959Z,100.00
2019-03-10T07:15:19.626Z,100.00
2019-03-10T07:17:51.271Z,100.00
2019-03-10T07:20:22.976Z,100.00
2019-03-10T07:22:54.903Z,99.05
2019-03-10T07:25:26.743Z,98.08
2019-03-10T07:28:20.098Z,97.01
2019-03-10T07:30:59.714Z,95.54
2019-03-10T07:33:41.947Z,93.45
2019-03-10T07:36:28.775Z,91.33
2019-03-10T07:39:14.965Z,86.63
2019-03-10T07:42:12.617Z,83.99
2019-03-10T07:45:03.699Z,80.89
2019-03-10T07:47:52.976Z,79.16
2019-03-10T07:50:39.947Z,78.93
2019-03-10T07:53:24.340Z,80.41
2019-03-10T07:56:06.880Z,83.83
2019-03-10T07:58:57.574Z,84.50
2019-03-10T08:01:51.225Z,84.14
2019-03-10T08:04:53.897Z,84.41
2019-03-10T08:07:33.648Z,83.37
2019-03-10T08:10:23.962Z,82.81
2019-03-10T08:13:14.035Z,80.83
2019-03-10T08:16:11.881Z,75.60
2019-03-10T08:19:22.015Z,77.54
2019-03-10T08:22:27.832Z,82.01
2019-03-10T08:25:17.906Z,81.99
2019-03-10T08:28:17.409Z,82.70
2019-03-10T08:31:10.700Z,83.29
2019-03-10T08:34:04.951Z,82.46
2019-03-10T08:37:04.220Z,82.64
2019-03-10T08:39:55.844Z,81.19
2019-03-10T08:42:55.651Z,81.19
2019-03-10T08:45:45.317Z,81.04
2019-03-10T08:48:36.846Z,82.50
2019-03-10T08:51:36.541Z,82.83
2019-03-10T08:54:19.041Z,83.29
2019-03-10T08:56:58.821Z,82.71
2019-03-10T08:59:40.410Z,84.76
2019-03-10T09:02:40.850Z,83.87
2019-03-10T09:05:30.172Z,84.38
2019-03-10T09:08:24.508Z,85.10
2019-03-10T09:11:06.258Z,84.44
2019-03-10T09:13:51.424Z,84.24
2019-03-10T09:16:40.607Z,84.59
2019-03-10T09:19:30.155Z,82.01
2019-03-10T09:22:08.501Z,80.76
2019-03-10T09:24:59.200Z,83.64
2019-03-10T09:27:50.286Z,85.10
2019-03-10T09:30:40.003Z,85.24
2019-03-10T09:33:28.306Z,86.25
2019-03-10T09:36:31.442Z,85.76
2019-03-10T09:39:33.551Z,85.75
2019-03-10T09:42:39.863Z,83.52
2019-03-10T09:45:29.938Z,82.99
2019-03-10T09:48:23.748Z,82.34
2019-03-10T09:51:13.215Z,82.33
2019-03-10T09:54:03.700Z,80.23
2019-03-10T09:57:01.038Z,78.43
2019-03-10T09:59:56.822Z,76.45
2019-03-10T10:02:59.620Z,76.46
2019-03-10T10:05:51.257Z,77.71
2019-03-10T10:09:25.898Z,77.63
2019-03-10T10:12:13.746Z,76.20
2019-03-10T10:14:57.634Z,69.96
2019-03-10T10:17:44.280Z,70.50
2019-03-10T10:20:37.969Z,67.68
2019-03-10T10:23:28.050Z,69.96
2019-03-10T10:26:24.965Z,72.67
2019-03-10T10:29:30.947Z,76.13
2019-03-10T10:32:18.153Z,78.61
2019-03-10T10:35:11.773Z,76.99
2019-03-10T10:38:18.193Z,65.13
2019-03-10T10:41:01.554Z,66.94
2019-03-10T10:43:58.089Z,63.06
2019-03-10T10:46:49.418Z,68.43
2019-03-10T10:49:40.310Z,70.19
2019-03-10T10:52:40.341Z,73.97
2019-03-10T10:55:39.181Z,76.40
2019-03-10T10:58:38.810Z,76.17
2019-03-10T11:01:27.052Z,76.78
2019-03-10T11:04:30.118Z,76.55
2019-03-10T11:07:33.167Z,75.15
2019-03-10T11:10:30.814Z,75.94
2019-03-10T11:13:19.022Z,77.63
2019-03-10T11:16:14.174Z,78.82
2019-03-10T11:19:13.779Z,80.05
2019-03-10T11:21:58.025Z,80.25
2019-03-10T11:24:43.488Z,79.52
2019-03-10T11:27:41.475Z,77.24
2019-03-10T11:30:33.571Z,76.06
2019-03-10T11:33:27.592Z,74.56
2019-03-10T11:36:06.377Z,69.41
2019-03-10T11:39:03.108Z,71.86
2019-03-10T11:41:53.823Z,72.38
2019-03-10T11:44:51.091Z,71.86
2019-03-10T11:47:50.672Z,71.62
2019-03-10T11:50:42.894Z,68.31
2019-03-10T11:53:36.680Z,60.76
2019-03-10T11:56:37.382Z,62.02
2019-03-10T11:59:13.548Z,62.95
2019-03-10T12:02:00.973Z,65.59
2019-03-10T12:04:44.795Z,70.72
2019-03-10T12:07:45.296Z,67.88
2019-03-10T12:10:17.590Z,69.87
2019-03-10T12:12:49.850Z,68.65
2019-03-10T12:15:21.744Z,71.21
2019-03-10T12:17:53.973Z,70.80
2019-03-10T12:20:26.046Z,71.24
2019-03-10T12:22:57.981Z,72.73
2019-03-10T12:25:30.482Z,73.02
2019-03-10T12:28:03.010Z,71.53
2019-03-10T12:30:35.099Z,74.80
2019-03-10T12:33:07.066Z,75.22
2019-03-10T12:35:39.138Z,73.23
2019-03-10T12:38:12.973Z,70.40
2019-03-10T12:40:45.036Z,68.72
2019-03-10T12:43:17.384Z,67.47
2019-03-10T12:45:49.756Z,66.07
2019-03-10T12:48:21.823Z,67.53
2019-03-10T12:50:54.337Z,70.67
2019-03-10T12:53:26.280Z,70.88
2019-03-10T12:55:58.556Z,73.26
2019-03-10T12:58:30.628Z,73.36
2019-03-10T13:01:06.675Z,74.74
2019-03-10T13:03:38.844Z,76.29
2019-03-10T13:06:10.953Z,75.17
2019-03-10T13:08:43.540Z,74.57
2019-03-10T13:11:16.726Z,75.20
2019-03-10T13:13:48.728Z,74.58
2019-03-10T13:16:21.235Z,74.14
2019-03-10T13:18:53.440Z,77.23
2019-03-10T13:21:27.346Z,76.79
2019-03-10T13:23:59.639Z,77.06
2019-03-10T13:26:31.963Z,77.91
2019-03-10T13:29:04.592Z,78.00
2019-03-10T13:31:36.629Z,78.42
2019-03-10T13:34:08.684Z,77.89
2019-03-10T13:36:41.473Z,79.77
2019-03-10T13:39:14.077Z,79.25
2019-03-10T13:41:46.460Z,80.04
2019-03-10T13:44:18.499Z,80.42
2019-03-10T13:46:50.718Z,81.36
2019-03-10T13:49:22.689Z,81.48
2019-03-10T13:51:55.187Z,82.22
2019-03-10T13:54:27.377Z,81.55
2019-03-10T13:57:00.233Z,81.02
2019-03-10T13:59:32.301Z,81.25
2019-03-10T14:02:04.358Z,81.12
2019-03-10T14:04:36.815Z,81.22
2019-03-10T14:07:10.407Z,82.25
2019-03-10T14:09:42.699Z,81.84
2019-03-10T14:12:14.984Z,81.26
2019-03-10T14:14:47.679Z,81.64
2019-03-10T14:17:20.357Z,81.83
2019-03-10T14:19:52.983Z,81.11
2019-03-10T14:22:25.567Z,82.18
2019-03-10T14:24:57.866Z,82.17
2019-03-10T14:27:31.593Z,81.39
2019-03-10T14:30:05.626Z,80.81
2019-03-10T14:32:38.526Z,81.76
2019-03-10T14:35:12.453Z,80.93
2019-03-10T14:37:46.135Z,81.08
2019-03-10T14:40:18.938Z,81.27
2019-03-10T14:42:51.801Z,82.06
2019-03-10T14:45:26.180Z,82.96
2019-03-10T14:47:58.555Z,83.72
2019-03-10T14:50:30.870Z,83.68
2019-03-10T14:53:04.821Z,83.28
2019-03-10T14:55:37.048Z,83.71
2019-03-10T14:58:10.163Z,83.96
2019-03-10T15:00:42.201Z,83.86
2019-03-10T15:03:15.025Z,83.56
2019-03-10T15:05:47.710Z,83.93
2019-03-10T15:08:20.216Z,84.15
2019-03-10T15:10:52.739Z,84.95
2019-03-10T15:13:24.780Z,84.56
2019-03-10T15:15:58.497Z,84.31
2019-03-10T15:18:30.440Z,85.13
2019-03-10T15:21:02.254Z,84.77
2019-03-10T15:23:34.307Z,84.81
2019-03-10T15:26:06.786Z,85.18
2019-03-10T15:28:39.331Z,84.95
2019-03-10T15:31:11.460Z,84.41
2019-03-10T15:33:44.609Z,84.52
2019-03-10T15:36:20.683Z,85.17
2019-03-10T15:38:51.507Z,85.74
2019-03-10T15:41:24.562Z,85.51
2019-03-10T15:43:57.330Z,85.60
2019-03-10T15:46:29.843Z,85.19
2019-03-10T15:49:02.871Z,85.66
2019-03-10T15:51:35.649Z,85.91
2019-03-10T15:54:09.286Z,86.07
2019-03-10T15:56:43.309Z,86.30
2019-03-10T15:59:18.554Z,86.47
2019-03-10T16:01:51.447Z,86.81
2019-03-10T16:04:28.089Z,87.12
2019-03-10T16:07:01.472Z,87.05
2019-03-10T16:09:35.235Z,87.46
2019-03-10T16:12:09.165Z,87.31
2019-03-10T16:14:43.028Z,88.22
2019-03-10T16:17:17.483Z,88.88
2019-03-10T16:19:50.635Z,88.71
2019-03-10T16:22:24.021Z,89.84
2019-03-10T16:24:57.740Z,90.64
2019-03-10T16:27:31.135Z,90.18
2019-03-10T16:30:04.976Z,90.26
2019-03-10T16:32:39.117Z,91.15
2019-03-10T16:35:13.610Z,90.79
2019-03-10T16:37:47.554Z,91.69
2019-03-10T16:40:21.248Z,92.11
2019-03-10T16:42:54.712Z,92.92
2019-03-10T16:45:28.226Z,93.49
2019-03-10T16:48:02.017Z,94.60
2019-03-10T16:50:35.953Z,95.78
2019-03-10T16:53:10.032Z,96.04
2019-03-10T16:55:43.630Z,96.53
2019-03-10T16:58:17.578Z,97.47
2019-03-10T17:00:51.059Z,97.37
2019-03-10T17:03:24.161Z,97.49
2019-03-10T17:05:57.984Z,97.88
2019-03-10T17:08:31.723Z,98.30
2019-03-10T17:11:05.349Z,98.41
2019-03-10T17:13:39.538Z,99.53
2019-03-10T17:16:13.455Z,100.00
2019-03-10T17:18:47.635Z,100.00
2019-03-10T17:21:21.971Z,100.00
2019-03-10T17:23:55.613Z,100.00
2019-03-10T17:26:29.093Z,100.00
2019-03-10T17:29:02.393Z,100.00
2019-03-10T17:31:36.592Z,99.91
2019-03-10T17:34:10.678Z,100.00
2019-03-10T17:36:45.209Z,100.00
2019-03-10T17:39:18.881Z,100.00
2019-03-10T17:41:52.333Z,100.00
2019-03-10T17:44:26.488Z,100.00
2019-03-10T17:47:01.692Z,100.00
2019-03-10T17:49:38.150Z,100.00
2019-03-10T17:52:14.744Z,100.00
2019-03-10T17:54:49.318Z,100.00
2019-03-10T17:57:23.487Z,100.00
2019-03-10T17:59:58.427Z,100.00
2019-03-10T18:02:32.121Z,100.00
2019-03-10T18:05:06.432Z,100.00
2019-03-10T18:07:40.485Z,100.00
2019-03-10T18:10:13.132Z,99.87
2019-03-10T18:12:46.002Z,99.54
2019-03-10T18:15:18.491Z,99.14
2019-03-10T18:17:51.399Z,98.83
2019-03-10T18:20:24.369Z,98.28
2019-03-10T18:22:59.214Z,97.95
2019-03-10T18:25:31.300Z,98.26
2019-03-10T18:28:06.070Z,98.36
2019-03-10T18:30:39.087Z,98.44
2019-03-10T18:33:12.245Z,98.22
2019-03-10T18:35:45.460Z,98.30
2019-03-10T18:38:18.330Z,98.44
2019-03-10T18:40:51.090Z,98.46
2019-03-10T18:43:25.137Z,98.49
2019-03-10T18:46:00.055Z,98.98
2019-03-10T18:48:33.153Z,98.71
2019-03-10T18:51:05.760Z,98.26
2019-03-10T18:53:39.379Z,98.10
2019-03-10T18:56:13.063Z,97.99
2019-03-10T18:58:46.424Z,97.96
2019-03-10T19:01:19.040Z,98.40
2019-03-10T19:03:51.383Z,99.12
2019-03-10T19:06:24.788Z,98.92
2019-03-10T19:08:57.809Z,98.66
2019-03-10T19:11:30.931Z,98.67
2019-03-10T19:14:03.787Z,98.48
2019-03-10T19:16:36.207Z,97.77
2019-03-10T19:19:09.969Z,97.26
2019-03-10T19:21:43.164Z,97.59
2019-03-10T19:24:16.061Z,97.64
2019-03-10T19:26:50.157Z,98.62
2019-03-10T19:29:22.805Z,99.49
2019-03-10T19:31:56.211Z,100.00
2019-03-10T19:34:28.795Z,100.00
2019-03-10T19:37:01.324Z,100.00
2019-03-10T19:39:33.697Z,100.00
2019-03-10T19:42:06.332Z,100.00
2019-03-10T19:44:38.662Z,100.00
2019-03-10T19:47:11.360Z,100.00
2019-03-10T19:49:44.077Z,100.00
2019-03-10T19:52:18.084Z,100.00
2019-03-10T19:54:51.161Z,100.00
2019-03-10T19:57:24.527Z,100.00
2019-03-10T19:59:56.909Z,100.00
2019-03-10T20:02:29.608Z,100.00
2019-03-10T20:05:01.896Z,100.00
2019-03-10T20:07:34.495Z,100.00
2019-03-10T20:10:07.200Z,100.00
2019-03-10T20:12:39.725Z,100.00
2019-03-10T20:15:15.161Z,100.00
2019-03-10T20:17:52.419Z,100.00
2019-03-10T20:20:26.192Z,100.00
2019-03-10T20:23:00.862Z,100.00
2019-03-10T20:25:32.446Z,100.00
2019-03-10T20:28:05.027Z,100.00
2019-03-10T20:30:38.250Z,100.00
2019-03-10T20:33:11.130Z,100.00
2019-03-10T20:35:43.481Z,100.00
2019-03-10T20:38:16.713Z,100.00
2019-03-10T20:40:48.688Z,100.00
2019-03-10T20:43:20.981Z,99.89
2019-03-10T20:45:53.554Z,99.59
2019-03-10T20:48:25.933Z,100.00
2019-03-10T20:50:58.478Z,99.20
2019-03-10T20:53:32.702Z,99.03
2019-03-10T20:56:07.704Z,98.69
2019-03-10T20:58:40.080Z,98.49
2019-03-10T21:01:12.264Z,97.68
2019-03-10T21:03:44.682Z,97.88
2019-03-10T21:06:17.164Z,98.28
2019-03-10T21:08:49.600Z,98.28
2019-03-10T21:11:22.296Z,98.02
2019-03-10T21:13:54.173Z,97.23
2019-03-10T21:16:26.989Z,97.29
2019-03-10T21:18:59.159Z,97.51
2019-03-10T21:21:31.653Z,97.30
2019-03-10T21:24:04.051Z,97.25
2019-03-10T21:26:36.174Z,97.95
2019-03-10T21:29:08.505Z,98.11
2019-03-10T21:31:40.921Z,98.44
2019-03-10T21:34:15.380Z,99.52
2019-03-10T21:36:48.414Z,100.00
2019-03-10T21:39:20.639Z,100.00
2019-03-10T21:41:52.986Z,100.00
2019-03-10T21:44:26.844Z,100.00
2019-03-10T21:46:59.530Z,100.00
2019-03-10T21:49:31.647Z,100.00
2019-03-10T21:52:04.332Z,100.00
2019-03-10T21:54:37.340Z,100.00
2019-03-10T21:57:11.942Z,100.00
2019-03-10T21:59:44.005Z,100.00
2019-03-10T22:02:17.029Z,100.00
2019-03-10T22:04:49.112Z,100.00
2019-03-10T22:07:22.208Z,100.00
2019-03-10T22:09:54.103Z,100.00
2019-03-10T22:12:26.574Z,100.00
2019-03-10T22:14:58.571Z,100.00
2019-03-10T22:17:30.925Z,100.00
2019-03-10T22:20:02.994Z,100.00
2019-03-10T22:22:37.078Z,100.00
2019-03-10T22:25:12.788Z,100.00
2019-03-10T22:27:42.398Z,100.00
2019-03-10T22:30:16.612Z,100.00
2019-03-10T22:32:48.515Z,100.00
2019-03-10T22:35:20.800Z,100.00
2019-03-10T22:37:53.249Z,100.00
2019-03-10T22:40:25.324Z,100.00
2019-03-10T22:42:57.421Z,100.00
2019-03-10T22:45:29.387Z,100.00
2019-03-10T22:48:02.021Z,100.00
2019-03-10T22:50:33.906Z,100.00
2019-03-10T22:53:05.889Z,100.00
2019-03-10T22:55:38.105Z,100.00
2019-03-10T22:58:10.049Z,99.64
2019-03-10T23:00:46.722Z,99.73
2019-03-10T23:03:18.963Z,100.00
2019-03-10T23:05:50.869Z,100.00
2019-03-10T23:08:22.947Z,100.00
2019-03-10T23:10:54.777Z,100.00
2019-03-10T23:13:26.956Z,100.00
2019-03-10T23:15:59.289Z,100.00
2019-03-10T23:18:31.317Z,100.00
2019-03-10T23:21:03.363Z,100.00
2019-03-10T23:23:35.600Z,100.00
2019-03-10T23:26:07.395Z,100.00
2019-03-10T23:28:39.495Z,100.00
2019-03-10T23:31:11.842Z,100.00
2019-03-10T23:33:44.159Z,100.00
2019-03-10T23:36:15.890Z,100.00
2019-03-10T23:38:47.697Z,100.00
2019-03-10T23:41:19.669Z,100.00
2019-03-10T23:43:51.860Z,100.00
2019-03-10T23:46:23.967Z,100.00
2019-03-10T23:48:56.220Z,100.00
2019-03-10T23:51:28.278Z,100.00
2019-03-10T23:54:00.256Z,100.00
2019-03-10T23:56:32.112Z,100.00
2019-03-10T23:59:04.083Z,100.00
